Time;durP1;ratioP1;P1;durP2;ratioP2;P2;SDS_P1;SDS_P2;PMS_P1;PMS_P2;Temp;Humidity;BMP_temperature;BMP_pressure;BME280_temperature;BME280_humidity;BME280_pressure;Samples;Min_cycle;Max_cycle;Signal;HPM_P1;HPM_P2
2021/07/12 00:00:33;;;;;;;25.03;7.23;;;;;;;;;;5048462;28;20210;-56
2021/07/12 00:02:58;;;;;;;19.03;5.13;;;;;;;;;;5046054;28;20190;-56
2021/07/12 00:05:24;;;;;;;30.30;5.03;;;;;;;;;;5046647;28;20190;-57
2021/07/12 00:07:49;;;;;;;14.57;6.37;;;;;;;;;;5045550;28;20217;-56
2021/07/12 00:10:16;;;;;;;17.30;6.90;;;;;;;;;;5041066;28;20293;-56
2021/07/12 00:12:41;;;;;;;33.43;6.83;;;;;;;;;;5031666;28;20647;-55
2021/07/12 00:15:07;;;;;;;30.33;9.13;;;;;;;;;;5034387;28;20293;-56
2021/07/12 00:17:33;;;;;;;62.13;10.93;;;;;;;;;;5041486;28;20178;-57
2021/07/12 00:19:58;;;;;;;79.87;14.00;;;;;;;;;;5046170;28;20420;-56
2021/07/12 00:22:23;;;;;;;101.43;13.40;;;;;;;;;;5053442;28;20602;-57
2021/07/12 00:24:48;;;;;;;83.90;12.07;;;;;;;;;;5048807;28;20277;-58
2021/07/12 00:27:14;;;;;;;59.60;9.90;;;;;;;;;;5032368;28;20217;-57
2021/07/12 00:29:39;;;;;;;41.77;8.53;;;;;;;;;;5044487;28;20209;-57
2021/07/12 00:32:04;;;;;;;32.90;8.30;;;;;;;;;;5030618;28;20178;-57
2021/07/12 00:34:30;;;;;;;28.53;8.80;;;;;;;;;;5032778;28;20571;-57
2021/07/12 00:36:55;;;;;;;98.10;12.23;;;;;;;;;;5036490;28;20806;-56
2021/07/12 00:39:20;;;;;;;33.67;9.53;;;;;;;;;;5042067;28;20264;-57
2021/07/12 00:41:45;;;;;;;27.40;9.83;;;;;;;;;;5028808;28;20173;-57
2021/07/12 00:44:10;;;;;;;38.43;9.07;;;;;;;;;;5046381;28;20216;-57
2021/07/12 00:46:36;;;;;;;40.73;9.10;;;;;;;;;;5036413;28;20195;-57
2021/07/12 00:49:01;;;;;;;23.80;8.37;;;;;;;;;;5040082;28;20548;-57
2021/07/12 00:51:27;;;;;;;33.27;9.40;;;;;;;;;;5043489;28;20205;-57
2021/07/12 00:53:53;;;;;;;72.37;11.00;;;;;;;;;;5040452;28;20205;-56
2021/07/12 00:56:18;;;;;;;54.93;9.30;;;;;;;;;;5029630;28;20182;-56
2021/07/12 00:58:44;;;;;;;57.53;8.63;;;;;;;;;;5034083;28;20170;-59
2021/07/12 01:01:09;;;;;;;45.23;9.07;;;;;;;;;;5044474;28;20197;-58
2021/07/12 01:03:35;;;;;;;27.73;7.90;;;;;;;;;;5042364;28;20235;-57
2021/07/12 01:06:00;;;;;;;35.63;8.70;;;;;;;;;;5042641;28;20190;-57
2021/07/12 01:08:26;;;;;;;28.03;7.17;;;;;;;;;;5034438;28;20189;-59
2021/07/12 01:11:11;;;;;;;39.40;7.60;;;;;;;;;;5037153;28;20258;-57
2021/07/12 01:13:44;;;;;;;90.03;9.27;;;;;;;;;;5038753;28;20193;-56
2021/07/12 01:16:30;;;;;;;40.23;7.07;;;;;;;;;;5033588;28;20193;-57
2021/07/12 01:18:56;;;;;;;18.40;7.53;;;;;;;;;;5033930;28;20186;-58
2021/07/12 01:21:37;;;;;;;21.70;7.53;;;;;;;;;;5049940;28;20271;-57
2021/07/12 01:24:14;;;;;;;20.17;8.07;;;;;;;;;;5048885;28;21054;-57
2021/07/12 01:26:45;;;;;;;16.53;7.87;;;;;;;;;;5037380;28;20201;-57
2021/07/12 01:29:15;;;;;;;15.30;8.10;;;;;;;;;;5035997;28;20194;-57
2021/07/12 01:31:44;;;;;;;117.20;8.30;;;;;;;;;;5043682;28;20189;-56
2021/07/12 01:34:30;;;;;;;42.33;7.20;;;;;;;;;;5050410;28;20226;-57
2021/07/12 01:37:04;;;;;;;7.00;5.77;;;;;;;;;;5042823;28;20178;-57
2021/07/12 01:39:32;;;;;;;9.90;5.33;;;;;;;;;;5049148;28;20284;-56
2021/07/12 01:42:00;;;;;;;8.37;5.60;;;;;;;;;;5049925;28;20182;-58
2021/07/12 01:44:44;;;;;;;27.07;5.00;;;;;;;;;;5034563;28;20210;-57
2021/07/12 01:47:12;;;;;;;32.73;4.83;;;;;;;;;;5048364;28;20265;-57
2021/07/12 01:49:47;;;;;;;39.37;6.50;;;;;;;;;;5065265;28;20198;-56
2021/07/12 01:52:22;;;;;;;12.47;5.67;;;;;;;;;;5049143;28;20667;-57
2021/07/12 01:54:47;;;;;;;28.87;5.57;;;;;;;;;;5048583;28;20296;-56
2021/07/12 01:57:20;;;;;;;21.53;5.63;;;;;;;;;;5041840;28;20209;-57
2021/07/12 01:59:58;;;;;;;25.50;6.40;;;;;;;;;;5039025;28;20971;-57
2021/07/12 02:02:27;;;;;;;23.63;5.63;;;;;;;;;;5044069;28;20191;-57
2021/07/12 02:04:53;;;;;;;16.03;5.50;;;;;;;;;;5039261;28;20182;-56
2021/07/12 02:07:18;;;;;;;22.80;5.93;;;;;;;;;;5048750;28;20186;-58
2021/07/12 02:09:46;;;;;;;19.50;5.73;;;;;;;;;;5048690;28;20284;-58
2021/07/12 02:12:11;;;;;;;20.20;6.30;;;;;;;;;;5038184;28;20579;-58
2021/07/12 02:14:37;;;;;;;12.40;5.80;;;;;;;;;;5035834;28;20221;-57
2021/07/12 02:17:03;;;;;;;20.00;6.97;;;;;;;;;;5044813;28;20240;-56
2021/07/12 02:19:29;;;;;;;17.37;7.27;;;;;;;;;;5045058;28;20687;-56
2021/07/12 02:21:55;;;;;;;15.30;7.50;;;;;;;;;;5036001;28;20208;-56
2021/07/12 02:24:21;;;;;;;14.40;6.80;;;;;;;;;;5045551;28;20189;-56
2021/07/12 02:26:48;;;;;;;12.73;6.33;;;;;;;;;;5037458;28;20186;-56
2021/07/12 02:29:14;;;;;;;9.77;5.93;;;;;;;;;;5061781;28;20183;-56
2021/07/12 02:31:40;;;;;;;14.13;6.23;;;;;;;;;;5034996;28;20178;-57
2021/07/12 02:34:05;;;;;;;13.63;7.00;;;;;;;;;;5036567;28;20774;-56
2021/07/12 02:36:31;;;;;;;12.53;6.60;;;;;;;;;;5044571;28;20553;-56
2021/07/12 02:38:56;;;;;;;16.40;6.17;;;;;;;;;;5047761;28;20265;-58
2021/07/12 02:41:22;;;;;;;16.77;5.83;;;;;;;;;;5040012;28;21162;-58
2021/07/12 02:43:48;;;;;;;15.90;6.30;;;;;;;;;;5047978;28;20186;-59
2021/07/12 02:46:13;;;;;;;23.43;6.50;;;;;;;;;;5040414;28;20234;-57
2021/07/12 02:48:39;;;;;;;23.85;6.15;;;;;;;;;;5044567;28;20265;-57
2021/07/12 02:51:06;;;;;;;15.50;5.80;;;;;;;;;;5042605;28;20283;-57
2021/07/12 02:53:32;;;;;;;12.03;6.90;;;;;;;;;;5042291;28;20232;-57
2021/07/12 02:55:57;;;;;;;9.35;5.47;;;;;;;;;;5044128;28;20275;-56
2021/07/12 02:58:23;;;;;;;14.10;5.77;;;;;;;;;;5033864;28;20221;-58
2021/07/12 03:00:48;;;;;;;12.83;6.13;;;;;;;;;;5034312;28;20194;-57
2021/07/12 03:03:14;;;;;;;10.30;5.25;;;;;;;;;;5046072;28;20701;-56
2021/07/12 03:05:39;;;;;;;12.93;5.67;;;;;;;;;;5041038;28;20190;-56
2021/07/12 03:08:11;;;;;;;12.88;5.00;;;;;;;;;;5040492;28;20175;-57
2021/07/12 03:10:48;;;;;;;11.60;4.28;;;;;;;;;;5044944;28;20252;-56
2021/07/12 03:13:18;;;;;;;17.77;4.45;;;;;;;;;;5039021;28;20614;-57
2021/07/12 03:15:47;;;;;;;20.90;5.90;;;;;;;;;;5045192;28;20238;-57
2021/07/12 03:18:31;;;;;;;175.20;9.40;;;;;;;;;;5034067;28;20185;-56
2021/07/12 03:20:57;;;;;;;28.07;6.77;;;;;;;;;;5031461;28;20704;-56
2021/07/12 03:23:23;;;;;;;25.52;5.60;;;;;;;;;;5047306;28;20257;-56
2021/07/12 03:25:53;;;;;;;19.23;5.30;;;;;;;;;;5038793;28;20820;-56
2021/07/12 03:28:19;;;;;;;59.57;6.37;;;;;;;;;;5032725;28;20725;-57
2021/07/12 03:30:45;;;;;;;76.83;6.67;;;;;;;;;;5043627;28;20259;-57
2021/07/12 03:33:10;;;;;;;6.03;5.13;;;;;;;;;;5044115;28;20190;-56
2021/07/12 03:35:41;;;;;;;11.37;5.40;;;;;;;;;;5033541;28;20205;-57
2021/07/12 03:38:07;;;;;;;7.07;4.88;;;;;;;;;;5045335;28;20239;-56
2021/07/12 03:40:32;;;;;;;11.13;5.23;;;;;;;;;;5040910;28;20202;-56
2021/07/12 03:42:57;;;;;;;13.67;5.10;;;;;;;;;;5045511;28;20236;-55
2021/07/12 03:45:22;;;;;;;8.37;5.30;;;;;;;;;;5035635;28;20182;-57
2021/07/12 03:47:50;;;;;;;7.33;4.53;;;;;;;;;;5040850;28;20182;-58
2021/07/12 03:50:16;;;;;;;16.42;5.90;;;;;;;;;;5048060;28;20216;-56
2021/07/12 03:52:48;;;;;;;15.68;5.53;;;;;;;;;;5039809;28;20678;-56
2021/07/12 03:55:14;;;;;;;13.70;5.73;;;;;;;;;;5031717;28;20206;-57
2021/07/12 03:57:40;;;;;;;16.87;6.70;;;;;;;;;;5036777;28;20184;-56
2021/07/12 04:00:06;;;;;;;12.10;5.95;;;;;;;;;;5062706;28;20202;-56
2021/07/12 04:02:31;;;;;;;8.25;4.85;;;;;;;;;;5046827;28;20170;-57
2021/07/12 04:04:57;;;;;;;12.77;5.30;;;;;;;;;;5042618;28;20182;-57
2021/07/12 04:07:22;;;;;;;10.90;4.68;;;;;;;;;;5040408;28;20179;-58
2021/07/12 04:09:47;;;;;;;12.23;5.60;;;;;;;;;;5036350;28;20206;-56
2021/07/12 04:12:12;;;;;;;14.97;6.93;;;;;;;;;;5053301;28;20451;-56
2021/07/12 04:14:37;;;;;;;14.20;5.43;;;;;;;;;;5029298;28;20194;-56
2021/07/12 04:17:03;;;;;;;12.27;5.97;;;;;;;;;;5031393;28;20273;-58
2021/07/12 04:19:28;;;;;;;18.97;7.27;;;;;;;;;;5035692;28;20198;-56
2021/07/12 04:21:53;;;;;;;17.97;8.83;;;;;;;;;;5040581;28;20181;-56
2021/07/12 04:24:18;;;;;;;21.27;7.80;;;;;;;;;;5044800;28;20696;-55
2021/07/12 04:26:43;;;;;;;18.73;8.83;;;;;;;;;;5036380;28;20182;-57
2021/07/12 04:29:09;;;;;;;11.27;7.57;;;;;;;;;;5032179;28;20642;-56
2021/07/12 04:31:34;;;;;;;23.93;9.07;;;;;;;;;;5048976;28;20224;-56
2021/07/12 04:33:59;;;;;;;14.10;8.50;;;;;;;;;;5038333;28;20202;-57
2021/07/12 04:36:24;;;;;;;19.23;9.30;;;;;;;;;;5038600;28;20204;-56
2021/07/12 04:38:50;;;;;;;15.57;9.13;;;;;;;;;;5044832;28;20709;-57
2021/07/12 04:41:15;;;;;;;14.87;8.13;;;;;;;;;;5042821;28;20198;-56
2021/07/12 04:43:40;;;;;;;17.87;8.80;;;;;;;;;;5047163;28;20603;-56
2021/07/12 04:46:05;;;;;;;15.53;8.07;;;;;;;;;;5043312;28;20272;-56
2021/07/12 04:48:30;;;;;;;16.20;7.90;;;;;;;;;;5045873;28;20209;-56
2021/07/12 04:50:56;;;;;;;18.60;8.43;;;;;;;;;;5041743;28;20558;-58
2021/07/12 04:53:21;;;;;;;17.67;7.40;;;;;;;;;;5053798;28;20187;-56
2021/07/12 04:55:46;;;;;;;18.55;7.53;;;;;;;;;;5037462;28;20225;-58
2021/07/12 04:58:11;;;;;;;10.93;6.72;;;;;;;;;;5044822;28;20710;-56
2021/07/12 05:00:37;;;;;;;15.40;7.45;;;;;;;;;;5045701;28;20198;-57
2021/07/12 05:03:04;;;;;;;16.00;7.18;;;;;;;;;;5046224;28;20178;-56
2021/07/12 05:05:29;;;;;;;16.27;7.23;;;;;;;;;;5042458;28;20189;-56
2021/07/12 05:07:55;;;;;;;9.38;7.05;;;;;;;;;;5044450;28;20247;-57
2021/07/12 05:10:20;;;;;;;9.77;6.57;;;;;;;;;;5042213;28;20210;-56
2021/07/12 05:12:45;;;;;;;10.40;6.07;;;;;;;;;;5057583;28;20217;-57
2021/07/12 05:15:11;;;;;;;15.55;6.60;;;;;;;;;;5042144;28;20285;-57
2021/07/12 05:17:36;;;;;;;12.90;6.82;;;;;;;;;;5046484;28;20189;-56
2021/07/12 05:20:02;;;;;;;10.20;5.90;;;;;;;;;;5035458;28;20216;-56
2021/07/12 05:22:28;;;;;;;8.05;6.45;;;;;;;;;;5044198;28;20217;-57
2021/07/12 05:24:54;;;;;;;19.55;6.57;;;;;;;;;;5043179;28;20657;-56
2021/07/12 05:27:19;;;;;;;11.50;5.63;;;;;;;;;;5029841;28;20688;-58
2021/07/12 05:29:44;;;;;;;10.13;5.95;;;;;;;;;;5041023;28;20213;-56
2021/07/12 05:32:09;;;;;;;12.60;6.65;;;;;;;;;;5056539;28;20179;-56
2021/07/12 05:34:34;;;;;;;16.50;6.53;;;;;;;;;;5050238;28;20221;-55
2021/07/12 05:36:59;;;;;;;16.63;6.35;;;;;;;;;;5050893;28;20179;-56
2021/07/12 05:39:25;;;;;;;8.68;5.88;;;;;;;;;;5037409;28;20182;-57
2021/07/12 05:41:50;;;;;;;13.02;6.20;;;;;;;;;;5032182;28;20178;-56
2021/07/12 05:44:15;;;;;;;13.98;6.03;;;;;;;;;;5035773;28;20209;-57
2021/07/12 05:46:41;;;;;;;7.63;6.22;;;;;;;;;;5034428;28;20189;-56
2021/07/12 05:49:06;;;;;;;6.50;5.90;;;;;;;;;;5033960;28;20205;-57
2021/07/12 05:51:32;;;;;;;9.32;6.20;;;;;;;;;;5042477;28;20210;-58
2021/07/12 05:53:57;;;;;;;12.95;6.05;;;;;;;;;;5034570;28;20209;-56
2021/07/12 05:56:22;;;;;;;6.47;5.38;;;;;;;;;;5033482;28;20179;-57
2021/07/12 05:58:47;;;;;;;8.03;5.53;;;;;;;;;;5036178;28;20186;-56
2021/07/12 06:01:16;;;;;;;9.23;5.88;;;;;;;;;;5032730;28;20807;-57
2021/07/12 06:03:41;;;;;;;5.70;5.10;;;;;;;;;;5036387;28;20178;-56
2021/07/12 06:06:06;;;;;;;9.00;5.50;;;;;;;;;;5038280;28;20193;-57
2021/07/12 06:08:31;;;;;;;10.43;5.07;;;;;;;;;;5043916;28;20171;-57
2021/07/12 06:10:56;;;;;;;10.05;5.70;;;;;;;;;;5040714;28;20569;-57
2021/07/12 06:13:22;;;;;;;11.23;5.93;;;;;;;;;;5037979;28;20269;-56
2021/07/12 06:15:47;;;;;;;9.02;5.85;;;;;;;;;;5038737;28;20267;-56
2021/07/12 06:18:15;;;;;;;11.52;5.07;;;;;;;;;;5039970;28;20661;-57
2021/07/12 06:20:41;;;;;;;7.35;5.53;;;;;;;;;;5035543;28;20215;-57
2021/07/12 06:23:06;;;;;;;6.30;5.68;;;;;;;;;;5036646;28;20177;-58
2021/07/12 06:25:31;;;;;;;5.72;5.05;;;;;;;;;;5042285;28;20657;-58
2021/07/12 06:27:57;;;;;;;6.93;4.30;;;;;;;;;;5042632;28;20178;-57
2021/07/12 06:30:22;;;;;;;11.48;5.45;;;;;;;;;;5057442;28;20682;-56
2021/07/12 06:32:47;;;;;;;6.63;5.10;;;;;;;;;;5039865;28;20178;-57
2021/07/12 06:35:13;;;;;;;7.82;4.30;;;;;;;;;;5064743;28;20198;-57
2021/07/12 06:37:38;;;;;;;5.55;4.00;;;;;;;;;;5045000;28;20183;-60
2021/07/12 06:40:04;;;;;;;9.68;4.60;;;;;;;;;;5054054;28;20237;-57
2021/07/12 06:42:29;;;;;;;5.40;4.13;;;;;;;;;;5061288;28;20269;-58
2021/07/12 06:44:57;;;;;;;5.50;4.07;;;;;;;;;;5044236;28;20193;-59
2021/07/12 06:47:23;;;;;;;8.43;4.90;;;;;;;;;;5048236;28;20183;-58
2021/07/12 06:49:48;;;;;;;6.28;5.32;;;;;;;;;;5043666;28;20202;-58
2021/07/12 06:52:13;;;;;;;7.53;5.00;;;;;;;;;;5046138;28;20189;-60
2021/07/12 06:54:39;;;;;;;5.50;4.87;;;;;;;;;;5043161;28;20232;-58
2021/07/12 06:57:04;;;;;;;8.70;5.72;;;;;;;;;;5043791;28;20424;-58
2021/07/12 06:59:29;;;;;;;10.32;6.63;;;;;;;;;;5045093;28;20209;-57
2021/07/12 07:01:54;;;;;;;8.43;6.65;;;;;;;;;;5039480;28;20190;-57
2021/07/12 07:04:19;;;;;;;9.82;6.68;;;;;;;;;;5063601;28;20286;-58
2021/07/12 07:06:45;;;;;;;12.70;7.07;;;;;;;;;;5039989;28;20245;-57
2021/07/12 07:09:10;;;;;;;11.68;7.50;;;;;;;;;;5061161;28;20594;-59
2021/07/12 07:11:35;;;;;;;10.00;8.43;;;;;;;;;;5044821;28;20220;-59
2021/07/12 07:14:03;;;;;;;12.43;8.57;;;;;;;;;;5037730;28;20211;-59
2021/07/12 07:16:29;;;;;;;8.95;8.05;;;;;;;;;;5036967;28;20701;-60
2021/07/12 07:18:55;;;;;;;7.93;6.80;;;;;;;;;;5036701;28;20199;-59
2021/07/12 07:21:20;;;;;;;9.63;6.67;;;;;;;;;;5040055;28;20206;-59
2021/07/12 07:23:45;;;;;;;7.20;6.50;;;;;;;;;;5036824;28;20417;-60
2021/07/12 07:26:11;;;;;;;7.47;6.75;;;;;;;;;;5037473;28;20224;-60
2021/07/12 07:28:36;;;;;;;6.72;6.13;;;;;;;;;;5039264;28;20183;-59
2021/07/12 07:31:02;;;;;;;8.25;5.90;;;;;;;;;;5038441;28;20190;-60
2021/07/12 07:33:29;;;;;;;8.02;6.13;;;;;;;;;;5039614;28;20659;-60
2021/07/12 07:35:54;;;;;;;8.73;7.00;;;;;;;;;;5036351;28;20206;-59
2021/07/12 07:38:19;;;;;;;10.23;6.60;;;;;;;;;;5036535;28;20236;-57
2021/07/12 07:40:45;;;;;;;7.22;6.47;;;;;;;;;;5042141;28;20316;-58
2021/07/12 07:43:10;;;;;;;11.67;6.93;;;;;;;;;;5043910;28;20186;-57
2021/07/12 07:45:35;;;;;;;7.13;6.47;;;;;;;;;;5046600;28;20423;-55
2021/07/12 07:48:00;;;;;;;11.35;6.93;;;;;;;;;;5047047;28;20691;-57
2021/07/12 07:50:25;;;;;;;8.33;7.20;;;;;;;;;;5044146;28;20678;-57
2021/07/12 07:52:51;;;;;;;10.25;7.07;;;;;;;;;;5039420;28;20189;-57
2021/07/12 07:55:16;;;;;;;8.55;7.55;;;;;;;;;;5045984;28;20294;-58
2021/07/12 07:57:42;;;;;;;8.20;7.40;;;;;;;;;;5047403;28;20197;-57
2021/07/12 08:00:09;;;;;;;8.60;7.82;;;;;;;;;;5063046;28;20193;-57
2021/07/12 08:02:34;;;;;;;9.63;6.97;;;;;;;;;;5039905;28;20200;-57
2021/07/12 08:04:59;;;;;;;8.00;7.28;;;;;;;;;;5046417;28;20262;-57
2021/07/12 08:07:25;;;;;;;7.57;6.80;;;;;;;;;;5038116;28;20289;-57
2021/07/12 08:09:50;;;;;;;7.77;7.07;;;;;;;;;;5046641;28;20704;-57
2021/07/12 08:12:15;;;;;;;12.20;7.90;;;;;;;;;;5044220;28;20194;-56
2021/07/12 08:14:40;;;;;;;11.57;7.67;;;;;;;;;;5040056;28;20205;-55
2021/07/12 08:17:05;;;;;;;8.87;8.07;;;;;;;;;;5042719;28;20416;-56
2021/07/12 08:19:30;;;;;;;8.33;7.53;;;;;;;;;;5038838;28;20193;-56
2021/07/12 08:21:56;;;;;;;8.17;7.47;;;;;;;;;;5036276;28;20419;-55
2021/07/12 08:24:21;;;;;;;17.80;7.13;;;;;;;;;;5042475;28;20192;-56
2021/07/12 08:26:46;;;;;;;10.77;7.03;;;;;;;;;;5056940;28;20773;-57
2021/07/12 08:29:11;;;;;;;14.33;7.53;;;;;;;;;;5032533;28;20182;-57
2021/07/12 08:31:37;;;;;;;9.32;6.20;;;;;;;;;;5043219;28;20182;-56
2021/07/12 08:34:02;;;;;;;6.75;6.15;;;;;;;;;;5045496;28;20241;-57
2021/07/12 08:36:27;;;;;;;7.30;5.13;;;;;;;;;;5033993;28;20177;-56
2021/07/12 08:38:52;;;;;;;6.17;5.63;;;;;;;;;;5039860;28;20715;-57
2021/07/12 08:41:17;;;;;;;6.93;5.20;;;;;;;;;;5039852;28;20264;-58
2021/07/12 08:43:43;;;;;;;5.83;5.20;;;;;;;;;;5062258;28;20178;-57
2021/07/12 08:46:08;;;;;;;5.90;4.72;;;;;;;;;;5039720;28;20252;-57
2021/07/12 08:48:33;;;;;;;5.07;4.78;;;;;;;;;;5041955;28;20184;-58
2021/07/12 08:50:59;;;;;;;4.77;4.47;;;;;;;;;;5045885;28;20213;-57
2021/07/12 08:53:24;;;;;;;4.50;4.20;;;;;;;;;;5036423;28;20181;-57
2021/07/12 08:55:49;;;;;;;4.77;4.47;;;;;;;;;;5044631;28;20716;-57
2021/07/12 08:58:20;;;;;;;4.50;4.10;;;;;;;;;;5034285;28;20174;-56
2021/07/12 09:00:48;;;;;;;5.93;4.32;;;;;;;;;;5045565;28;20680;-55
2021/07/12 09:03:20;;;;;;;4.20;3.90;;;;;;;;;;5040187;28;20186;-56
2021/07/12 09:05:52;;;;;;;4.18;3.88;;;;;;;;;;5044716;28;20216;-54
2021/07/12 09:08:32;;;;;;;4.05;3.65;;;;;;;;;;5037478;28;20196;-60
2021/07/12 09:11:12;;;;;;;4.18;3.80;;;;;;;;;;5036600;28;20692;-56
2021/07/12 09:13:43;;;;;;;7.72;3.65;;;;;;;;;;5043270;28;20221;-57
2021/07/12 09:16:26;;;;;;;4.70;4.22;;;;;;;;;;5039514;28;20174;-56
2021/07/12 09:19:05;;;;;;;4.95;3.88;;;;;;;;;;5030565;28;20232;-56
2021/07/12 09:21:38;;;;;;;4.57;4.00;;;;;;;;;;5057761;28;20256;-56
2021/07/12 09:24:10;;;;;;;4.65;4.13;;;;;;;;;;5032155;28;20236;-56
2021/07/12 09:26:39;;;;;;;6.75;3.95;;;;;;;;;;5037261;28;20182;-56
2021/07/12 09:29:04;;;;;;;4.10;3.80;;;;;;;;;;5033364;28;20197;-57
2021/07/12 09:31:31;;;;;;;4.10;3.70;;;;;;;;;;5033927;28;20221;-56
2021/07/12 09:33:58;;;;;;;4.43;4.13;;;;;;;;;;5028866;28;20186;-55
2021/07/12 09:36:24;;;;;;;4.30;4.00;;;;;;;;;;5036914;28;20217;-56
2021/07/12 09:38:49;;;;;;;4.20;3.90;;;;;;;;;;5040067;28;20206;-54
2021/07/12 09:41:27;;;;;;;5.13;4.63;;;;;;;;;;5036950;28;20444;-55
2021/07/12 09:43:59;;;;;;;4.15;3.75;;;;;;;;;;5036399;28;20508;-56
2021/07/12 09:46:28;;;;;;;3.95;3.65;;;;;;;;;;5037217;28;20182;-56
2021/07/12 09:49:06;;;;;;;4.40;3.85;;;;;;;;;;5046032;28;20186;-59
2021/07/12 09:51:33;;;;;;;9.50;3.78;;;;;;;;;;5034845;28;20198;-58
2021/07/12 09:53:58;;;;;;;4.13;3.72;;;;;;;;;;5048965;28;20186;-56
2021/07/12 09:56:26;;;;;;;4.20;3.90;;;;;;;;;;5041961;28;20195;-59
2021/07/12 09:58:55;;;;;;;3.85;3.50;;;;;;;;;;5037507;28;20508;-58
2021/07/12 10:01:23;;;;;;;4.05;3.60;;;;;;;;;;5035157;28;20220;-57
2021/07/12 10:03:48;;;;;;;3.95;3.38;;;;;;;;;;5047713;28;20205;-56
2021/07/12 10:06:14;;;;;;;3.55;3.35;;;;;;;;;;5050293;28;20605;-56
2021/07/12 10:08:39;;;;;;;4.30;3.13;;;;;;;;;;5042910;28;20194;-56
2021/07/12 10:11:04;;;;;;;3.73;3.37;;;;;;;;;;5055579;28;20523;-57
2021/07/12 10:13:29;;;;;;;6.97;3.03;;;;;;;;;;5043839;28;20186;-58
2021/07/12 10:15:55;;;;;;;4.30;3.00;;;;;;;;;;5039440;28;20206;-55
2021/07/12 10:18:20;;;;;;;3.88;3.42;;;;;;;;;;5035006;28;20413;-56
2021/07/12 10:20:45;;;;;;;7.50;3.55;;;;;;;;;;5035916;28;20198;-55
2021/07/12 10:23:12;;;;;;;4.18;3.78;;;;;;;;;;5036155;28;20248;-57
2021/07/12 10:25:37;;;;;;;5.13;3.60;;;;;;;;;;5033987;28;20186;-56
2021/07/12 10:28:04;;;;;;;3.78;3.40;;;;;;;;;;5036533;28;20209;-55
2021/07/12 10:30:30;;;;;;;3.60;3.30;;;;;;;;;;5035844;28;20205;-58
2021/07/12 10:32:57;;;;;;;2.97;2.78;;;;;;;;;;5047267;28;20253;-58
2021/07/12 10:35:37;;;;;;;4.28;3.85;;;;;;;;;;5041079;28;20750;-58
2021/07/12 10:38:03;;;;;;;4.00;3.60;;;;;;;;;;5043242;28;20225;-58
2021/07/12 10:40:43;;;;;;;3.85;3.55;;;;;;;;;;5041571;28;20237;-57
2021/07/12 10:43:08;;;;;;;3.90;3.60;;;;;;;;;;5043981;28;20239;-58
2021/07/12 10:45:35;;;;;;;3.90;3.30;;;;;;;;;;5045296;28;20781;-58
2021/07/12 10:48:05;;;;;;;6.80;3.38;;;;;;;;;;5035460;28;20429;-57
2021/07/12 10:50:33;;;;;;;3.45;3.15;;;;;;;;;;5052533;28;20763;-56
2021/07/12 10:52:59;;;;;;;3.92;3.60;;;;;;;;;;5041123;28;20269;-56
2021/07/12 10:55:44;;;;;;;3.90;3.60;;;;;;;;;;5061443;28;20298;-57
2021/07/12 10:58:15;;;;;;;3.65;3.30;;;;;;;;;;5045234;28;20227;-57
2021/07/12 11:00:40;;;;;;;3.28;2.97;;;;;;;;;;5041261;28;20204;-57
2021/07/12 11:03:05;;;;;;;3.70;3.40;;;;;;;;;;5049103;28;20610;-59
2021/07/12 11:05:48;;;;;;;3.35;3.05;;;;;;;;;;5033915;28;20614;-58
2021/07/12 11:08:33;;;;;;;3.78;3.47;;;;;;;;;;5036400;28;20688;-56
2021/07/12 11:10:58;;;;;;;3.72;3.42;;;;;;;;;;5028281;28;20210;-57
2021/07/12 11:13:43;;;;;;;3.00;2.80;;;;;;;;;;5043435;28;20573;-57
2021/07/12 11:16:16;;;;;;;3.28;2.95;;;;;;;;;;5055773;28;20209;-55
2021/07/12 11:18:41;;;;;;;5.38;3.53;;;;;;;;;;5044300;28;20738;-56
2021/07/12 11:21:07;;;;;;;23.45;8.25;;;;;;;;;;5033360;28;20286;-57
2021/07/12 11:23:35;;;;;;;2.92;2.72;;;;;;;;;;5033543;28;20209;-58
2021/07/12 11:26:00;;;;;;;5.00;3.40;;;;;;;;;;5039037;28;20678;-56
2021/07/12 11:28:40;;;;;;;5.78;3.70;;;;;;;;;;5057929;28;20205;-58
2021/07/12 11:31:25;;;;;;;3.28;2.97;;;;;;;;;;5041000;28;20892;-56
2021/07/12 11:33:56;;;;;;;9.45;3.28;;;;;;;;;;5049396;28;20186;-56
2021/07/12 11:36:22;;;;;;;3.05;2.85;;;;;;;;;;5038853;28;20186;-55
2021/07/12 11:38:47;;;;;;;3.50;3.20;;;;;;;;;;5037938;28;20661;-56
2021/07/12 11:41:12;;;;;;;3.10;2.90;;;;;;;;;;5046911;28;20606;-58
2021/07/12 11:43:37;;;;;;;3.20;2.90;;;;;;;;;;5036961;28;20429;-57
2021/07/12 11:46:03;;;;;;;6.00;3.03;;;;;;;;;;5023862;28;20955;-57
2021/07/12 11:48:28;;;;;;;2.97;2.77;;;;;;;;;;5036233;28;20193;-56
2021/07/12 11:50:53;;;;;;;2.92;2.72;;;;;;;;;;5036132;28;20524;-56
2021/07/12 11:53:19;;;;;;;2.90;2.70;;;;;;;;;;5037135;28;20206;-57
2021/07/12 11:55:44;;;;;;;3.20;2.90;;;;;;;;;;5028126;28;20741;-56
2021/07/12 11:58:09;;;;;;;4.88;2.88;;;;;;;;;;5035617;28;20536;-55
2021/07/12 12:00:36;;;;;;;3.30;3.00;;;;;;;;;;5036626;28;20280;-56
2021/07/12 12:03:01;;;;;;;4.45;2.65;;;;;;;;;;5036414;28;20425;-57
2021/07/12 12:05:27;;;;;;;3.00;2.80;;;;;;;;;;5041870;28;20182;-57
2021/07/12 12:07:57;;;;;;;3.08;2.63;;;;;;;;;;5040499;28;20245;-56
2021/07/12 12:10:26;;;;;;;4.68;3.05;;;;;;;;;;5045104;28;20212;-55
2021/07/12 12:13:10;;;;;;;37.97;13.13;;;;;;;;;;5034343;28;20639;-57
2021/07/12 12:15:36;;;;;;;2.92;2.72;;;;;;;;;;5041117;28;20229;-57
2021/07/12 12:18:04;;;;;;;2.90;2.60;;;;;;;;;;5033381;28;20661;-57
2021/07/12 12:20:29;;;;;;;3.20;2.85;;;;;;;;;;5032114;28;20195;-57
2021/07/12 12:23:11;;;;;;;3.28;2.97;;;;;;;;;;5034348;28;20547;-56
2021/07/12 12:25:54;;;;;;;5.20;3.70;;;;;;;;;;5034248;28;20186;-56
2021/07/12 12:28:24;;;;;;;4.05;3.20;;;;;;;;;;5035879;28;20190;-57
2021/07/12 12:30:49;;;;;;;3.20;3.00;;;;;;;;;;5050310;28;20292;-56
2021/07/12 12:33:14;;;;;;;2.97;2.78;;;;;;;;;;5046104;28;20272;-55
2021/07/12 12:35:39;;;;;;;3.30;3.03;;;;;;;;;;5046754;28;20201;-56
2021/07/12 12:38:13;;;;;;;3.42;3.22;;;;;;;;;;5045498;28;20427;-56
2021/07/12 12:40:38;;;;;;;6.70;3.88;;;;;;;;;;5040406;28;20194;-55
2021/07/12 12:43:11;;;;;;;3.85;3.50;;;;;;;;;;5040387;28;20189;-56
2021/07/12 12:45:37;;;;;;;4.18;3.88;;;;;;;;;;5045196;28;20524;-55
2021/07/12 12:48:02;;;;;;;3.95;3.65;;;;;;;;;;5038662;28;20244;-57
2021/07/12 12:50:27;;;;;;;4.47;3.60;;;;;;;;;;5038857;28;20276;-55
2021/07/12 12:53:13;;;;;;;3.95;3.65;;;;;;;;;;5042953;28;20198;-56
2021/07/12 12:55:38;;;;;;;4.30;3.90;;;;;;;;;;5038270;28;20205;-55
2021/07/12 12:58:10;;;;;;;4.15;3.85;;;;;;;;;;5045831;28;20232;-55
2021/07/12 13:00:35;;;;;;;4.95;3.67;;;;;;;;;;5037529;28;20198;-55
2021/07/12 13:03:00;;;;;;;3.85;3.45;;;;;;;;;;5043919;28;20188;-56
2021/07/12 13:05:26;;;;;;;5.83;4.03;;;;;;;;;;5045356;28;20217;-56
2021/07/12 13:07:54;;;;;;;4.18;3.78;;;;;;;;;;5046691;28;20432;-55
2021/07/12 13:10:22;;;;;;;4.43;4.03;;;;;;;;;;5057289;22;20227;-58
2021/07/12 13:12:49;;;;;;;7.53;4.45;;;;;;;;;;5028814;28;20265;-56
2021/07/12 13:15:15;;;;;;;5.07;3.97;;;;;;;;;;5012177;28;20237;-59
2021/07/12 13:17:41;;;;;;;6.38;4.32;;;;;;;;;;5030556;28;20214;-58
2021/07/12 13:20:08;;;;;;;7.50;4.15;;;;;;;;;;5022827;28;20664;-58
2021/07/12 13:22:33;;;;;;;4.25;3.85;;;;;;;;;;5010586;28;20175;-58
2021/07/12 13:25:06;;;;;;;4.30;3.90;;;;;;;;;;4987057;28;20191;-59
2021/07/12 13:27:36;;;;;;;3.75;2.95;;;;;;;;;;4996089;28;20191;-57
2021/07/12 13:30:04;;;;;;;4.53;3.00;;;;;;;;;;5007077;28;20691;-57
2021/07/12 13:32:30;;;;;;;3.75;3.45;;;;;;;;;;5009091;28;20191;-57
2021/07/12 13:34:57;;;;;;;2.80;2.60;;;;;;;;;;5010571;28;20609;-57
2021/07/12 13:37:22;;;;;;;3.35;3.05;;;;;;;;;;5012111;28;20582;-57
2021/07/12 13:39:47;;;;;;;3.50;3.30;;;;;;;;;;5010537;28;20252;-58
2021/07/12 13:42:13;;;;;;;3.50;2.92;;;;;;;;;;4992696;28;20218;-58
2021/07/12 13:44:38;;;;;;;3.60;2.88;;;;;;;;;;5010246;28;20218;-58
2021/07/12 13:47:03;;;;;;;4.28;3.10;;;;;;;;;;5010291;28;20179;-59
2021/07/12 13:49:29;;;;;;;2.88;2.65;;;;;;;;;;5009908;28;20206;-57
2021/07/12 13:51:54;;;;;;;2.95;2.65;;;;;;;;;;5009366;28;20338;-59
2021/07/12 13:54:19;;;;;;;3.15;2.67;;;;;;;;;;5009399;28;20215;-59
2021/07/12 13:56:44;;;;;;;3.20;2.90;;;;;;;;;;5009476;28;20546;-59
2021/07/12 13:59:10;;;;;;;3.00;2.80;;;;;;;;;;5007695;28;20500;-60
2021/07/12 14:01:35;;;;;;;2.80;2.60;;;;;;;;;;4990630;28;20610;-60
2021/07/12 14:04:00;;;;;;;2.57;2.37;;;;;;;;;;5010223;28;20426;-59
2021/07/12 14:06:25;;;;;;;8.80;2.77;;;;;;;;;;5011216;28;20963;-60
2021/07/12 14:08:50;;;;;;;3.00;2.80;;;;;;;;;;4994576;28;20437;-61
2021/07/12 14:11:16;;;;;;;2.95;2.75;;;;;;;;;;5009376;28;20422;-62
2021/07/12 14:13:41;;;;;;;3.20;3.00;;;;;;;;;;5007224;28;20266;-60
2021/07/12 14:16:06;;;;;;;2.92;2.65;;;;;;;;;;5011267;28;20207;-60
2021/07/12 14:18:31;;;;;;;3.40;3.10;;;;;;;;;;5014351;28;20192;-60
2021/07/12 14:20:57;;;;;;;3.37;2.87;;;;;;;;;;5001533;28;20211;-59
2021/07/12 14:23:22;;;;;;;3.03;2.72;;;;;;;;;;5007834;28;20422;-61
2021/07/12 14:25:47;;;;;;;3.45;2.42;;;;;;;;;;4992301;28;20180;-61
2021/07/12 14:28:12;;;;;;;3.28;2.85;;;;;;;;;;5008494;28;20740;-60
2021/07/12 14:30:37;;;;;;;3.17;2.90;;;;;;;;;;4999233;28;20267;-59
2021/07/12 14:33:03;;;;;;;3.83;3.00;;;;;;;;;;5009415;28;20429;-61
2021/07/12 14:35:29;;;;;;;3.25;3.05;;;;;;;;;;5010895;28;20476;-60
2021/07/12 14:37:54;;;;;;;3.17;2.88;;;;;;;;;;5011110;28;20229;-60